KHSI

Hastings Municipal Airport

Hastings, Nebraska, USA
METAR KHSI 191953Z AUTO 35020G28KT 10SM CLR 23/06 A3008 RMK AO2 PK WND 35028/1952 SLP180 T02280061
Observed Flight Rules
Oct-19 @ 19:53 UTC (44 minutes ago) Visual Flight Rules
Wind Visibility Clouds
350° at 20 knots
 Gusting to 28 knots
10 miles
  • Clear skies
Temperatures Readings
Current 23°C / 73°F
Dewpoint 6°C / 43°F
Humidity 33%
Altimeter 30.08" Hg
Pressure 1018 hPa
Elevation 591
METAR KHSI 191953Z AUTO 35020G28KT 10SM CLR 23/06 A3008 RMK AO2 PK WND 35028/1952 SLP180 T02280061
Observed Flight Rules
Oct-19 @ 19:53 UTC
(44 minutes ago)
VFR
Wind Visibility
350° at 20 knots
 Gusting to 28 knots
10 miles
Clouds
  • Clear skies
Temperature Dewpoint
23°C / 73°F 6°C / 43°F
Humidity Altimeter Pressure
33% 30.08" Hg 1018 hPa